Time;durP1;ratioP1;P1;durP2;ratioP2;P2;SDS_P1;SDS_P2;PMS_P1;PMS_P2;Temp;Humidity;BMP_temperature;BMP_pressure;BME280_temperature;BME280_humidity;BME280_pressure;Samples;Min_cycle;Max_cycle;Signal;HPM_P1;HPM_P2
2020/12/28 00:01:37;471476.00;1.57;812.73;0.00;0.00;0.62;;;;;24.60;37.70;;;;;;2252702;61;6140;-68
2020/12/28 00:04:08;384763.00;1.28;663.61;4877.00;0.02;9.07;;;;;24.60;37.80;;;;;;2253062;61;7245;-68
2020/12/28 00:06:34;358364.00;1.19;618.24;0.00;0.00;0.62;;;;;24.60;37.80;;;;;;2249193;61;6854;-68
2020/12/28 00:09:01;331393.00;1.10;571.88;0.00;0.00;0.62;;;;;24.60;37.90;;;;;;2256046;61;6878;-68
2020/12/28 00:11:27;414187.00;1.38;714.20;0.00;0.00;0.62;;;;;24.60;37.90;;;;;;2252813;61;7342;-68
2020/12/28 00:13:54;498312.00;1.66;858.92;0.00;0.00;0.62;;;;;24.50;37.90;;;;;;2255584;61;6088;-68
2020/12/28 00:16:20;506949.00;1.69;873.79;0.00;0.00;0.62;;;;;24.50;37.90;;;;;;2255329;61;7359;-68
2020/12/28 00:18:47;565963.00;1.89;975.48;12206.00;0.04;21.77;;;;;24.50;38.00;;;;;;2253832;61;7043;-68
2020/12/28 00:21:13;351339.00;1.17;606.16;0.00;0.00;0.62;;;;;24.50;38.10;;;;;;2251944;61;7164;-68
2020/12/28 00:23:40;632651.00;2.11;1090.63;13646.00;0.05;24.27;;;;;24.50;38.00;;;;;;2256336;61;7090;-68
2020/12/28 00:26:06;381911.00;1.27;658.71;0.00;0.00;0.62;;;;;24.50;38.10;;;;;;2256467;61;7346;-68
2020/12/28 00:28:32;804134.00;2.68;1388.33;17529.00;0.06;30.99;;;;;24.40;38.00;;;;;;2254774;61;7081;-68
2020/12/28 00:30:59;600171.00;2.00;1034.52;0.00;0.00;0.62;;;;;24.40;38.10;;;;;;2255963;61;6339;-68
2020/12/28 00:33:32;124336384.00;414.45;77873936.00;0.00;0.00;0.62;;;;;24.40;38.30;;;;;;2256278;61;7497;-68
2020/12/28 00:35:59;428603.00;1.43;738.98;0.00;0.00;0.62;;;;;24.40;38.10;;;;;;2258464;61;7131;-68
2020/12/28 00:38:25;360633.00;1.20;622.14;0.00;0.00;0.62;;;;;24.30;38.20;;;;;;2256980;61;7353;-68
2020/12/28 00:40:51;570032.00;1.90;982.50;0.00;0.00;0.62;;;;;24.30;38.20;;;;;;2255660;61;7400;-68
2020/12/28 00:43:17;630447.00;2.10;1086.82;0.00;0.00;0.62;;;;;24.30;38.30;;;;;;2261298;60;7407;-68
2020/12/28 00:45:44;790797.00;2.64;1365.08;13555.00;0.05;24.11;;;;;24.30;38.40;;;;;;2262641;61;5595;-68
2020/12/28 00:48:13;407908.00;1.36;703.40;0.00;0.00;0.62;;;;;24.20;38.50;;;;;;2261225;60;7208;-68
2020/12/28 00:50:39;819320.00;2.73;1414.84;46664.00;0.16;81.42;;;;;24.20;38.60;;;;;;2260722;60;6194;-68
2020/12/28 00:53:06;406681.00;1.36;701.29;0.00;0.00;0.62;;;;;24.10;38.60;;;;;;2261046;61;7258;-68
2020/12/28 00:55:32;593354.00;1.98;1022.75;0.00;0.00;0.62;;;;;24.10;38.80;;;;;;2259369;61;7293;-68
2020/12/28 00:57:58;458444.00;1.53;790.31;0.00;0.00;0.62;;;;;24.10;38.80;;;;;;2261106;60;7451;-68
2020/12/28 01:00:24;409073.00;1.36;705.40;0.00;0.00;0.62;;;;;24.00;38.70;;;;;;2261277;60;7348;-68
2020/12/28 01:02:51;365670.00;1.22;630.79;0.00;0.00;0.62;;;;;24.00;38.70;;;;;;2261297;60;7265;-68
2020/12/28 01:05:17;435557.00;1.45;750.94;34799.00;0.12;60.89;;;;;24.00;38.70;;;;;;2261281;60;5900;-68
2020/12/28 01:07:43;456160.00;1.52;786.38;0.00;0.00;0.62;;;;;24.00;38.70;;;;;;2261390;61;7324;-68
2020/12/28 01:10:09;519910.00;1.73;896.11;365.00;0.00;1.25;;;;;24.00;39.50;;;;;;2254970;60;6133;-68
2020/12/28 01:12:36;472317.00;1.57;814.18;0.00;0.00;0.62;;;;;24.10;38.80;;;;;;2263448;60;7137;-68
2020/12/28 01:15:02;965566.00;3.22;1671.58;63031.00;0.21;109.72;;;;;24.10;38.70;;;;;;2260837;61;7186;-68
2020/12/28 01:17:28;570621.00;1.90;983.52;27890.00;0.09;48.93;;;;;24.10;38.70;;;;;;2255706;61;7188;-68
2020/12/28 01:19:55;524682.00;1.75;904.33;0.00;0.00;0.62;;;;;24.10;38.70;;;;;;2263294;60;7464;-68
2020/12/28 01:22:21;454910.00;1.52;784.23;0.00;0.00;0.62;;;;;24.10;38.70;;;;;;2260126;60;7308;-68
2020/12/28 01:24:48;638392.00;2.13;1100.56;148.00;0.00;0.88;;;;;24.10;38.70;;;;;;2261113;61;7147;-68
2020/12/28 01:27:14;334086.00;1.11;576.51;0.00;0.00;0.62;;;;;24.10;38.70;;;;;;2257507;60;7488;-68
2020/12/28 01:29:41;394451.00;1.31;680.27;0.00;0.00;0.62;;;;;24.10;38.70;;;;;;2261222;60;7424;-68
2020/12/28 01:32:07;452893.00;1.51;780.76;0.00;0.00;0.62;;;;;24.10;38.60;;;;;;2257224;61;7606;-68
2020/12/28 01:34:37;393668.00;1.31;678.92;0.00;0.00;0.62;;;;;24.10;38.60;;;;;;2261843;60;7334;-68
2020/12/28 01:37:03;552339.00;1.84;951.99;0.00;0.00;0.62;;;;;24.10;38.60;;;;;;2260756;60;7370;-68
2020/12/28 01:39:29;584228.00;1.95;1006.99;0.00;0.00;0.62;;;;;24.10;38.60;;;;;;2259646;60;5798;-68
2020/12/28 01:41:56;445807.00;1.49;768.57;0.00;0.00;0.62;;;;;24.10;38.60;;;;;;2262593;60;6812;-68
2020/12/28 01:44:26;608924.00;2.03;1049.63;5590.00;0.02;10.31;;;;;24.10;38.70;;;;;;2262977;60;7127;-68
2020/12/28 01:46:53;625630.00;2.09;1078.50;11766.00;0.04;21.01;;;;;24.10;38.70;;;;;;2263555;60;7097;-68
2020/12/28 01:49:19;468940.00;1.56;808.37;0.00;0.00;0.62;;;;;24.00;38.60;;;;;;2257761;60;7710;-68
2020/12/28 01:51:46;419824.00;1.40;723.89;0.00;0.00;0.62;;;;;24.10;38.60;;;;;;2259849;60;7190;-68
2020/12/28 01:54:12;401427.00;1.34;692.26;0.00;0.00;0.62;;;;;24.10;38.70;;;;;;2257824;60;7219;-68
2020/12/28 01:56:40;578223.00;1.93;996.63;0.00;0.00;0.62;;;;;24.10;38.60;;;;;;2256145;60;7571;-67
2020/12/28 01:59:08;397515.00;1.33;685.53;0.00;0.00;0.62;;;;;24.10;38.60;;;;;;2260278;60;7123;-68
2020/12/28 02:01:41;609587.00;2.03;1050.78;0.00;0.00;0.62;;;;;24.10;38.70;;;;;;2260627;60;7761;-68
2020/12/28 02:04:08;367476.00;1.22;633.90;0.00;0.00;0.62;;;;;24.00;39.20;;;;;;2260501;60;6011;-68
2020/12/28 02:06:35;723774.00;2.41;1248.49;0.00;0.00;0.62;;;;;24.10;38.70;;;;;;2249843;60;7537;-68
2020/12/28 02:09:02;458633.00;1.53;790.63;0.00;0.00;0.62;;;;;24.10;38.60;;;;;;2259886;60;7034;-68
2020/12/28 02:11:32;712065.00;2.37;1228.17;10212.00;0.03;18.32;;;;;24.10;38.70;;;;;;2259552;60;7469;-68
2020/12/28 02:13:58;253602.00;0.85;438.15;0.00;0.00;0.62;;;;;24.00;38.60;;;;;;2263188;60;7159;-68
2020/12/28 02:16:25;544940.00;1.82;939.24;4419.00;0.01;8.28;;;;;24.10;38.60;;;;;;2260963;60;7239;-67
2020/12/28 02:18:51;558830.00;1.86;963.18;0.00;0.00;0.62;;;;;24.10;38.70;;;;;;2260709;60;7340;-68
2020/12/28 02:21:17;388398.00;1.29;669.86;0.00;0.00;0.62;;;;;24.00;38.50;;;;;;2260144;60;6725;-68
2020/12/28 02:23:45;586181.00;1.95;1010.36;14405.00;0.05;25.58;;;;;24.10;38.60;;;;;;2258916;60;7572;-67
2020/12/28 02:26:11;593542.00;1.98;1023.07;26473.00;0.09;46.48;;;;;24.10;38.60;;;;;;2260603;61;7548;-68
2020/12/28 02:28:38;485198.00;1.62;836.34;0.00;0.00;0.62;;;;;24.00;38.50;;;;;;2260800;61;6844;-68
2020/12/28 02:31:04;690608.00;2.30;1190.96;0.00;0.00;0.62;;;;;24.10;38.60;;;;;;2258917;60;6719;-68
2020/12/28 02:33:31;440983.00;1.47;760.27;0.00;0.00;0.62;;;;;24.10;38.60;;;;;;2260129;60;7206;-67
2020/12/28 02:35:57;507976.00;1.69;875.56;0.00;0.00;0.62;;;;;24.10;38.60;;;;;;2259291;61;7310;-67
2020/12/28 02:38:24;593466.00;1.98;1022.94;0.00;0.00;0.62;;;;;24.10;38.60;;;;;;2260185;60;6892;-67
2020/12/28 02:40:51;435507.00;1.45;750.86;0.00;0.00;0.62;;;;;24.00;38.60;;;;;;2257019;61;7471;-67
2020/12/28 02:43:17;574750.00;1.92;990.64;0.00;0.00;0.62;;;;;24.00;38.60;;;;;;2253738;61;5953;-67
2020/12/28 02:45:43;470443.00;1.57;810.95;0.00;0.00;0.62;;;;;24.00;38.60;;;;;;2257135;61;7384;-68
2020/12/28 02:48:10;503782.00;1.68;868.34;0.00;0.00;0.62;;;;;24.00;38.60;;;;;;2260989;61;6602;-68
2020/12/28 02:50:40;506481.00;1.69;872.98;5372.00;0.02;9.93;;;;;24.00;38.60;;;;;;2261118;61;7303;-67
2020/12/28 02:53:06;329919.00;1.10;569.35;4051.00;0.01;7.64;;;;;24.00;38.60;;;;;;2260048;60;7745;-68
2020/12/28 02:55:32;717768.00;2.39;1238.06;16382.00;0.05;29.00;;;;;24.00;38.60;;;;;;2257235;61;7409;-68
2020/12/28 02:57:59;782178.00;2.61;1350.06;10540.00;0.04;18.88;;;;;24.00;38.60;;;;;;2260300;61;7200;-67
2020/12/28 03:00:25;532344.00;1.77;917.53;3400.00;0.01;6.51;;;;;24.00;38.70;;;;;;2257912;60;7369;-68
2020/12/28 03:02:51;154740.00;0.52;267.98;0.00;0.00;0.62;;;;;24.00;38.60;;;;;;2263248;60;7309;-67
2020/12/28 03:05:17;320305.00;1.07;552.82;0.00;0.00;0.62;;;;;24.00;38.70;;;;;;2255315;60;4921;-67
2020/12/28 03:07:44;1097763.00;3.66;1906.42;0.00;0.00;0.62;;;;;24.00;38.70;;;;;;2252375;61;9109;-67
2020/12/28 03:10:10;440771.00;1.47;759.91;0.00;0.00;0.62;;;;;24.00;38.70;;;;;;2255931;61;7311;-67
2020/12/28 03:12:36;478852.00;1.60;825.42;0.00;0.00;0.62;;;;;24.00;38.70;;;;;;2259137;61;7246;-68
2020/12/28 03:15:03;679374.00;2.26;1171.49;0.00;0.00;0.62;;;;;24.00;38.70;;;;;;2262447;60;7436;-68
2020/12/28 03:17:33;397065.00;1.32;684.76;4789.00;0.02;8.92;;;;;24.00;38.70;;;;;;2261908;60;7525;-67
2020/12/28 03:20:00;481890.00;1.61;830.65;0.00;0.00;0.62;;;;;24.00;38.70;;;;;;2256435;60;7179;-67
2020/12/28 03:22:26;409609.00;1.37;706.32;0.00;0.00;0.62;;;;;24.00;38.70;;;;;;2260222;61;7267;-68
2020/12/28 03:25:00;737061.00;2.46;1271.57;116982.00;0.39;202.88;;;;;23.90;38.60;;;;;;2264057;60;7107;-68
2020/12/28 03:27:26;235486.00;0.78;406.99;0.00;0.00;0.62;;;;;23.90;38.60;;;;;;2257377;60;7612;-67
2020/12/28 03:29:53;439478.00;1.46;757.69;0.00;0.00;0.62;;;;;23.90;38.60;;;;;;2259399;61;7041;-67
2020/12/28 03:32:19;400473.00;1.33;690.62;0.00;0.00;0.62;;;;;24.00;38.70;;;;;;2257221;60;7391;-68
2020/12/28 03:34:45;681406.00;2.27;1175.01;0.00;0.00;0.62;;;;;23.90;39.30;;;;;;2260542;61;7288;-68
2020/12/28 03:37:11;447584.00;1.49;771.63;0.00;0.00;0.62;;;;;23.90;38.60;;;;;;2259148;60;7159;-67
2020/12/28 03:39:37;637476.00;2.12;1098.97;9061.00;0.03;16.32;;;;;24.00;38.70;;;;;;2258793;60;7104;-67
2020/12/28 03:42:07;411334.00;1.37;709.29;0.00;0.00;0.62;;;;;23.90;38.60;;;;;;2259820;60;7395;-67
2020/12/28 03:44:38;657783.00;2.19;1134.10;78770.00;0.26;136.91;;;;;24.00;38.70;;;;;;2264113;60;7373;-67
2020/12/28 03:47:04;429153.00;1.43;739.93;70247.00;0.23;122.19;;;;;24.00;38.70;;;;;;2261434;60;7393;-68
2020/12/28 03:49:30;420046.00;1.40;724.27;0.00;0.00;0.62;;;;;23.90;38.60;;;;;;2253086;60;7172;-67
2020/12/28 03:51:57;536776.00;1.79;925.17;20884.00;0.07;36.80;;;;;23.90;38.60;;;;;;2257871;60;7665;-68
2020/12/28 03:54:26;813516.00;2.71;1404.71;221.00;0.00;1.00;;;;;24.00;38.70;;;;;;2264906;60;7425;-68
2020/12/28 03:56:53;492238.00;1.64;848.46;0.00;0.00;0.62;;;;;24.00;38.70;;;;;;2261437;60;7352;-68
2020/12/28 03:59:20;529674.00;1.77;912.93;18655.00;0.06;32.94;;;;;23.90;38.60;;;;;;2255407;60;7204;-67
2020/12/28 04:01:50;293420.00;0.98;506.61;0.00;0.00;0.62;;;;;23.90;38.60;;;;;;2261787;60;7023;-68
2020/12/28 04:04:19;383109.00;1.28;660.77;0.00;0.00;0.62;;;;;24.00;38.70;;;;;;2260161;61;7769;-67
2020/12/28 04:06:46;647476.00;2.16;1116.27;56742.00;0.19;98.84;;;;;23.90;38.60;;;;;;2258229;60;7596;-67
2020/12/28 04:09:12;636133.00;2.12;1096.65;43461.00;0.14;75.88;;;;;23.90;38.70;;;;;;2259010;60;7260;-67
2020/12/28 04:11:38;584240.00;1.95;1007.02;7662.00;0.03;13.90;;;;;24.00;38.70;;;;;;2260066;60;7215;-67
2020/12/28 04:14:04;417512.00;1.39;719.91;8252.00;0.03;14.92;;;;;23.90;38.60;;;;;;2258689;60;7380;-67
2020/12/28 04:16:31;584776.00;1.95;1007.94;0.00;0.00;0.62;;;;;23.90;38.60;;;;;;2258213;60;7464;-67
2020/12/28 04:18:57;123290.00;0.41;213.76;0.00;0.00;0.62;;;;;23.90;38.60;;;;;;2260452;60;7920;-67
2020/12/28 04:21:24;373866.00;1.25;644.88;0.00;0.00;0.62;;;;;24.00;38.70;;;;;;2259945;61;7194;-67
2020/12/28 04:23:50;390589.00;1.30;673.63;0.00;0.00;0.62;;;;;23.90;38.60;;;;;;2258285;61;7009;-67
2020/12/28 04:26:16;332481.00;1.11;573.75;0.00;0.00;0.62;;;;;23.90;38.70;;;;;;2257855;61;7182;-67
2020/12/28 04:28:43;568845.00;1.90;980.45;0.00;0.00;0.62;;;;;23.90;38.70;;;;;;2259545;61;7154;-67
2020/12/28 04:31:13;268706.00;0.90;464.12;0.00;0.00;0.62;;;;;23.90;38.60;;;;;;2261023;61;5941;-67
2020/12/28 04:33:39;478380.00;1.59;824.61;0.00;0.00;0.62;;;;;23.90;38.70;;;;;;2257275;60;7225;-67
2020/12/28 04:36:05;603324.00;2.01;1039.96;0.00;0.00;0.62;;;;;23.90;38.70;;;;;;2259884;61;7259;-67
2020/12/28 04:38:32;683379.00;2.28;1178.43;8323.00;0.03;15.04;;;;;23.90;38.70;;;;;;2259285;61;7215;-67
2020/12/28 04:41:05;371823.00;1.24;641.37;0.00;0.00;0.62;;;;;23.90;38.70;;;;;;2260412;60;6989;-66
2020/12/28 04:43:32;642420.00;2.14;1107.52;0.00;0.00;0.62;;;;;23.90;38.70;;;;;;2260234;60;7033;-67
2020/12/28 04:46:04;511573.00;1.71;881.75;4966.00;0.02;9.23;;;;;23.90;38.70;;;;;;2260353;61;7175;-67
2020/12/28 04:48:34;352168.00;1.17;607.59;0.00;0.00;0.62;;;;;23.90;38.70;;;;;;2256616;61;7135;-68
2020/12/28 04:51:01;297121.00;0.99;512.97;0.00;0.00;0.62;;;;;23.90;38.70;;;;;;2255801;61;7336;-67
2020/12/28 04:53:30;408650.00;1.36;704.68;15224.00;0.05;27.00;;;;;23.90;38.70;;;;;;2252045;61;7069;-67
2020/12/28 04:55:59;693474.00;2.31;1195.92;16293.00;0.05;28.85;;;;;23.90;38.70;;;;;;2250078;61;7523;-67
2020/12/28 04:58:29;481051.00;1.60;829.21;0.00;0.00;0.62;;;;;23.90;38.70;;;;;;2257038;61;7324;-67
2020/12/28 05:01:00;291378.00;0.97;503.10;0.00;0.00;0.62;;;;;23.80;38.60;;;;;;2256106;61;7714;-67
2020/12/28 05:03:29;346009.00;1.15;597.00;0.00;0.00;0.62;;;;;23.90;38.70;;;;;;2257693;61;7492;-67
2020/12/28 05:05:56;699593.00;2.33;1206.53;0.00;0.00;0.62;;;;;23.90;38.70;;;;;;2253202;61;7491;-68
2020/12/28 05:08:23;331910.00;1.11;572.77;0.00;0.00;0.62;;;;;23.90;38.70;;;;;;2258887;61;7090;-67
2020/12/28 05:10:50;591869.00;1.97;1020.18;61205.00;0.20;106.56;;;;;23.80;38.60;;;;;;2259620;61;6995;-67
2020/12/28 05:13:20;245818.00;0.82;424.76;0.00;0.00;0.62;;;;;23.80;38.70;;;;;;2256916;61;7304;-67
2020/12/28 05:15:55;410413.00;1.37;707.71;0.00;0.00;0.62;;;;;23.90;38.70;;;;;;2255716;61;7266;-67
2020/12/28 05:18:21;497197.00;1.66;857.00;0.00;0.00;0.62;;;;;23.80;38.60;;;;;;2258686;61;7213;-67
2020/12/28 05:20:49;506075.00;1.69;872.28;0.00;0.00;0.62;;;;;23.90;38.70;;;;;;2260718;61;7222;-67
2020/12/28 05:23:16;602741.00;2.01;1038.95;0.00;0.00;0.62;;;;;23.90;38.70;;;;;;2255990;61;7565;-67
2020/12/28 05:25:49;615955.00;2.05;1061.78;0.00;0.00;0.62;;;;;23.80;38.70;;;;;;2257231;61;7236;-67
2020/12/28 05:28:17;581127.00;1.94;1001.64;12412.00;0.04;22.13;;;;;23.90;38.70;;;;;;2256245;61;7115;-67
2020/12/28 05:30:45;497177.00;1.66;856.96;0.00;0.00;0.62;;;;;23.80;38.70;;;;;;2260580;61;7061;-67
2020/12/28 05:33:13;615746.00;2.05;1061.42;0.00;0.00;0.62;;;;;23.90;38.70;;;;;;2259090;61;7246;-67
2020/12/28 05:35:40;910337.00;3.03;1574.28;32157.00;0.11;56.32;;;;;23.80;38.70;;;;;;2258437;61;7006;-67
2020/12/28 05:38:08;494651.00;1.65;852.61;0.00;0.00;0.62;;;;;23.80;38.70;;;;;;2253651;61;7318;-67
2020/12/28 05:40:36;430274.00;1.43;741.86;0.00;0.00;0.62;;;;;23.80;38.80;;;;;;2256657;61;7231;-67
2020/12/28 05:43:03;356599.00;1.19;615.20;0.00;0.00;0.62;;;;;23.80;38.70;;;;;;2249469;61;7299;-67
2020/12/28 05:45:34;475118.00;1.58;819.00;0.00;0.00;0.62;;;;;23.80;38.70;;;;;;2257532;61;7265;-67
2020/12/28 05:48:01;445957.00;1.49;768.83;0.00;0.00;0.62;;;;;23.80;38.70;;;;;;2260235;61;7273;-67
2020/12/28 05:50:30;516859.00;1.72;890.85;0.00;0.00;0.62;;;;;23.80;38.70;;;;;;2263330;60;7460;-67
2020/12/28 05:53:02;646421.00;2.15;1114.44;5312.00;0.02;9.83;;;;;23.80;38.80;;;;;;2257247;60;7229;-67
2020/12/28 05:55:30;413238.00;1.38;712.56;4493.00;0.01;8.41;;;;;23.80;38.70;;;;;;2260883;61;7107;-67
2020/12/28 05:57:58;654690.00;2.18;1128.75;16491.00;0.05;29.19;;;;;23.80;38.70;;;;;;2261234;61;7982;-68
2020/12/28 06:00:26;425641.00;1.42;733.89;0.00;0.00;0.62;;;;;23.80;38.70;;;;;;2261562;60;7149;-67
2020/12/28 06:02:53;527578.00;1.76;909.32;0.00;0.00;0.62;;;;;23.80;38.70;;;;;;2259953;61;7215;-67
2020/12/28 06:05:21;471806.00;1.57;813.30;0.00;0.00;0.62;;;;;23.80;38.70;;;;;;2262058;61;7296;-67
2020/12/28 06:07:48;118164752.00;393.88;66834388.00;0.00;0.00;0.62;;;;;23.80;38.70;;;;;;2260631;60;6856;-67
2020/12/28 06:10:15;411819.00;1.37;710.12;0.00;0.00;0.62;;;;;23.80;38.70;;;;;;2258248;61;7178;-67
2020/12/28 06:12:42;544415.00;1.81;938.33;0.00;0.00;0.62;;;;;23.80;38.80;;;;;;2261264;61;7055;-67
2020/12/28 06:15:18;630492.00;2.10;1086.90;0.00;0.00;0.62;;;;;23.80;38.80;;;;;;2261773;61;7279;-68
2020/12/28 06:17:45;692327.00;2.31;1193.94;5338.00;0.02;9.87;;;;;23.70;38.70;;;;;;2258804;61;5549;-67
2020/12/28 06:20:15;692243.00;2.31;1193.79;7723.00;0.03;14.00;;;;;23.80;38.80;;;;;;2266638;60;5819;-67
2020/12/28 06:22:43;788018.00;2.63;1360.23;4861.00;0.02;9.04;;;;;23.80;38.80;;;;;;2261480;61;7308;-67
2020/12/28 06:25:21;551137.00;1.84;949.92;10274.00;0.03;18.42;;;;;23.70;38.70;;;;;;2255479;61;7104;-67
2020/12/28 06:27:48;388386.00;1.29;669.84;0.00;0.00;0.62;;;;;23.80;38.80;;;;;;2260407;61;7490;-66
2020/12/28 06:30:16;357149.00;1.19;616.15;0.00;0.00;0.62;;;;;23.80;38.80;;;;;;2258643;60;7811;-66
2020/12/28 06:33:01;152185.00;0.51;263.57;0.00;0.00;0.62;;;;;23.80;38.50;;;;;;2263375;60;5904;-66
2020/12/28 06:35:29;292357.00;0.97;504.78;0.00;0.00;0.62;;;;;23.80;38.40;;;;;;2259711;61;7687;-66
2020/12/28 06:37:58;301237.00;1.00;520.05;37625.00;0.13;65.78;;;;;23.90;38.40;;;;;;2262061;61;7763;-66
2020/12/28 06:40:37;318966.00;1.06;550.52;0.00;0.00;0.62;;;;;24.00;38.40;;;;;;2261702;61;6575;-66
2020/12/28 06:43:14;73024.00;0.24;126.99;0.00;0.00;0.62;;;;;24.00;38.40;;;;;;2261141;61;5651;-66
2020/12/28 06:45:44;185939.00;0.62;321.72;2733.00;0.01;5.36;;;;;24.00;38.30;;;;;;2254770;61;7878;-66
2020/12/28 06:48:24;131755.00;0.44;228.36;0.00;0.00;0.62;;;;;24.10;38.30;;;;;;2261357;61;8160;-66
2020/12/28 06:50:52;179625.00;0.60;310.84;0.00;0.00;0.62;;;;;24.10;38.30;;;;;;2262158;61;7873;-66
2020/12/28 06:53:23;321662.00;1.07;555.15;0.00;0.00;0.62;;;;;24.10;38.30;;;;;;2260144;61;8137;-66
2020/12/28 06:55:50;259353.00;0.86;448.04;0.00;0.00;0.62;;;;;24.20;38.40;;;;;;2257965;60;8058;-67
2020/12/28 06:58:16;221565.00;0.74;383.04;0.00;0.00;0.62;;;;;24.20;38.30;;;;;;2263474;61;5578;-67
2020/12/28 07:00:43;287709.00;0.96;496.79;0.00;0.00;0.62;;;;;24.30;38.30;;;;;;2258271;61;7838;-66
2020/12/28 07:03:14;251032.00;0.84;433.73;0.00;0.00;0.62;;;;;24.30;38.10;;;;;;2258475;61;7814;-67
2020/12/28 07:05:48;278009.00;0.93;480.11;0.00;0.00;0.62;;;;;24.40;38.00;;;;;;2261044;61;7724;-66
2020/12/28 07:08:24;263413.00;0.88;455.02;0.00;0.00;0.62;;;;;24.50;37.90;;;;;;2253919;61;7852;-66
2020/12/28 07:11:04;107856.00;0.36;187.13;0.00;0.00;0.62;;;;;24.60;37.80;;;;;;2261028;60;7624;-67
2020/12/28 07:13:31;328739.00;1.10;567.32;0.00;0.00;0.62;;;;;24.70;37.70;;;;;;2257823;61;7799;-66
2020/12/28 07:16:03;432685.00;1.44;746.00;34353.00;0.11;60.12;;;;;24.70;37.40;;;;;;2261132;61;7873;-66
2020/12/28 07:18:35;274684.00;0.92;474.40;0.00;0.00;0.62;;;;;24.80;37.40;;;;;;2265244;60;7523;-66
2020/12/28 07:21:03;213892.00;0.71;369.83;0.00;0.00;0.62;;;;;24.90;37.40;;;;;;2260706;61;7751;-66
2020/12/28 07:23:30;331106.00;1.10;571.39;0.00;0.00;0.62;;;;;24.90;37.30;;;;;;2256290;61;7796;-66
2020/12/28 07:26:08;253263.00;0.84;437.56;4057.00;0.01;7.65;;;;;24.90;37.20;;;;;;2258628;61;7642;-66
2020/12/28 07:28:36;261667.00;0.87;452.02;0.00;0.00;0.62;;;;;24.90;37.10;;;;;;2261934;61;7820;-66
2020/12/28 07:31:04;377341.00;1.26;650.85;0.00;0.00;0.62;;;;;25.00;37.20;;;;;;2258446;60;7962;-68
2020/12/28 07:33:32;246306.00;0.82;425.60;7881.00;0.03;14.28;;;;;24.90;37.10;;;;;;2261397;60;7867;-66
2020/12/28 07:36:06;201654.00;0.67;348.77;0.00;0.00;0.62;;;;;25.00;37.20;;;;;;2260479;61;7561;-65
2020/12/28 07:38:33;353318.00;1.18;609.56;0.00;0.00;0.62;;;;;24.90;37.90;;;;;;2262216;61;7758;-66
2020/12/28 07:40:59;646537.00;2.16;1114.65;188078.00;0.63;325.40;;;;;25.00;37.50;;;;;;2253817;61;5771;-66
2020/12/28 07:43:30;280608.00;0.94;484.58;0.00;0.00;0.62;;;;;25.10;37.50;;;;;;2262527;60;5899;-69
2020/12/28 07:46:18;452036.00;1.51;779.28;7365.00;0.02;13.38;;;;;25.10;37.50;;;;;;2263558;61;7683;-71
2020/12/28 07:48:53;236312.00;0.79;408.41;74.00;0.00;0.75;;;;;25.20;37.50;;;;;;2266457;60;5783;-69
2020/12/28 07:51:24;317596.00;1.06;548.17;0.00;0.00;0.62;;;;;25.30;37.40;;;;;;2263154;61;7459;-68
2020/12/28 07:54:01;508358.00;1.69;876.21;28835.00;0.10;50.57;;;;;25.30;37.30;;;;;;2262259;61;7695;-69
2020/12/28 07:56:57;357137.00;1.19;616.13;0.00;0.00;0.62;;;;;25.30;37.20;;;;;;2260682;61;7738;-70
2020/12/28 07:59:46;232930.00;0.78;402.59;0.00;0.00;0.62;;;;;25.40;37.10;;;;;;2266428;61;7672;-68
2020/12/28 08:02:50;51051.00;0.17;89.00;0.00;0.00;0.62;;;;;25.40;36.90;;;;;;2264032;61;7869;-69
2020/12/28 08:05:22;242546.00;0.81;419.13;0.00;0.00;0.62;;;;;25.50;36.90;;;;;;2265517;60;7638;-70
2020/12/28 08:07:50;252278.00;0.84;435.87;28281.00;0.09;49.61;;;;;25.40;36.80;;;;;;2258270;61;7866;-69
2020/12/28 08:10:16;117000032.00;390.00;64875772.00;39134.00;0.13;68.39;;;;;25.50;36.70;;;;;;2261868;60;8729;-69
2020/12/28 08:13:00;188599.00;0.63;326.30;0.00;0.00;0.62;;;;;25.50;36.60;;;;;;2261061;61;8669;-68
2020/12/28 08:15:32;264451.00;0.88;456.80;7229.00;0.02;13.15;;;;;25.50;36.50;;;;;;2260708;60;8733;-69
2020/12/28 08:18:10;520530.00;1.74;897.18;0.00;0.00;0.62;;;;;25.50;36.40;;;;;;2260412;61;7585;-67
2020/12/28 08:20:37;598468.00;1.99;1031.57;41346.00;0.14;72.22;;;;;25.50;36.40;;;;;;2261418;60;8702;-69
2020/12/28 08:23:03;254694.00;0.85;440.02;15292.00;0.05;27.12;;;;;25.50;36.80;;;;;;2261020;61;7544;-67
2020/12/28 08:25:35;220373.00;0.73;380.99;15461.00;0.05;27.41;;;;;25.50;36.90;;;;;;2263117;60;7676;-67
2020/12/28 08:28:03;421513.00;1.41;726.79;13048.00;0.04;23.23;;;;;25.60;36.50;;;;;;2260891;60;7988;-67
2020/12/28 08:30:33;211714.00;0.71;366.09;0.00;0.00;0.62;;;;;25.50;36.50;;;;;;2263934;60;7934;-66
2020/12/28 08:33:07;370186.00;1.23;638.56;0.00;0.00;0.62;;;;;25.50;36.60;;;;;;2256275;61;9158;-67
2020/12/28 08:35:51;363597.00;1.21;627.23;0.00;0.00;0.62;;;;;25.50;36.60;;;;;;2264105;60;7878;-67
2020/12/28 08:38:28;321986.00;1.07;555.71;11721.00;0.04;20.93;;;;;25.60;36.60;;;;;;2265609;60;7892;-69
2020/12/28 08:41:02;336270.00;1.12;580.26;5530.00;0.02;10.20;;;;;25.60;36.80;;;;;;2263704;60;7972;-66
2020/12/28 08:43:29;342046.00;1.14;590.19;30967.00;0.10;54.26;;;;;25.60;36.70;;;;;;2255576;61;7716;-66
2020/12/28 08:46:03;334022.00;1.11;576.40;19016.00;0.06;33.57;;;;;25.60;36.80;;;;;;2259719;61;7872;-66
2020/12/28 08:48:29;155016.00;0.52;268.45;0.00;0.00;0.62;;;;;25.60;37.00;;;;;;2257676;60;7853;-64
2020/12/28 08:50:56;206722.00;0.69;357.49;0.00;0.00;0.62;;;;;25.60;37.00;;;;;;2259149;61;7901;-64
2020/12/28 08:53:23;285826.00;0.95;493.55;0.00;0.00;0.62;;;;;25.50;37.10;;;;;;2262408;61;7873;-66
2020/12/28 08:56:01;437855.00;1.46;754.89;40128.00;0.13;70.11;;;;;25.50;37.70;;;;;;2262069;60;7733;-66
2020/12/28 08:58:28;177978.00;0.59;308.01;0.00;0.00;0.62;;;;;25.60;37.10;;;;;;2261422;61;5842;-67
2020/12/28 09:00:55;94019.00;0.31;163.25;0.00;0.00;0.62;;;;;25.50;37.10;;;;;;2263774;61;7611;-68
2020/12/28 09:03:25;185064.00;0.62;320.21;0.00;0.00;0.62;;;;;25.50;37.10;;;;;;2264257;61;7747;-67
2020/12/28 09:05:51;156452.00;0.52;270.93;3398.00;0.01;6.51;;;;;25.50;37.20;;;;;;2262905;61;7423;-68
2020/12/28 09:08:18;553331.00;1.84;953.70;0.00;0.00;0.62;;;;;25.50;37.20;;;;;;2258579;61;4521;-66
2020/12/28 09:10:48;295880.00;0.99;510.84;17096.00;0.06;30.24;;;;;25.50;37.30;;;;;;2261974;60;8308;-67
2020/12/28 09:13:15;256442.00;0.85;443.03;14552.00;0.05;25.83;;;;;25.50;37.30;;;;;;2261871;61;8107;-65
2020/12/28 09:15:41;254371.00;0.85;439.47;18062.00;0.06;31.91;;;;;25.50;37.30;;;;;;2260139;61;8360;-70
2020/12/28 09:18:07;534569.00;1.78;921.36;55724.00;0.19;97.08;;;;;25.50;37.30;;;;;;2259970;60;9151;-69
2020/12/28 09:20:34;519354.00;1.73;895.15;73501.00;0.25;127.81;;;;;25.50;37.40;;;;;;2259635;60;8279;-66
2020/12/28 09:23:00;399975.00;1.33;689.76;24615.00;0.08;43.26;;;;;25.50;37.60;;;;;;2266749;60;8197;-69
2020/12/28 09:25:26;673452.00;2.24;1161.23;71369.00;0.24;124.13;;;;;25.50;37.50;;;;;;2257287;60;8571;-65
2020/12/28 09:27:56;366476.00;1.22;632.18;19538.00;0.07;34.47;;;;;25.50;37.40;;;;;;2266841;60;8448;-65
2020/12/28 09:30:26;331780.00;1.11;572.55;12668.00;0.04;22.57;;;;;25.50;37.40;;;;;;2262914;61;8244;-65
2020/12/28 09:32:56;391183.00;1.30;674.65;1544.00;0.01;3.30;;;;;25.60;37.30;;;;;;2266569;60;8423;-67
2020/12/28 09:35:23;588173.00;1.96;1013.80;85874.00;0.29;149.18;;;;;25.60;37.40;;;;;;2258738;60;8276;-66
2020/12/28 09:37:54;390794.00;1.30;673.98;4563.00;0.02;8.53;;;;;25.70;37.20;;;;;;2263214;61;8132;-64
2020/12/28 09:40:20;610425.00;2.03;1052.22;89895.00;0.30;156.13;;;;;25.70;37.10;;;;;;2259674;60;8082;-66
2020/12/28 09:42:47;448966.00;1.50;774.00;0.00;0.00;0.62;;;;;25.80;37.00;;;;;;2258736;60;8549;-67
2020/12/28 09:47:57;313413.00;1.04;540.98;0.00;0.00;0.62;;;;;25.80;37.20;;;;;;2263576;61;8553;-67
2020/12/28 09:50:43;478435.00;1.59;824.70;17322.00;0.06;30.63;;;;;25.80;37.20;;;;;;2264330;61;8334;-65
2020/12/28 09:53:13;396799.00;1.32;684.30;87248.00;0.29;151.56;;;;;25.80;37.10;;;;;;2254121;61;8129;-69